Time;durP1;ratioP1;P1;durP2;ratioP2;P2;SDS_P1;SDS_P2;PMS_P1;PMS_P2;Temp;Humidity;BMP_temperature;BMP_pressure;BME280_temperature;BME280_humidity;BME280_pressure;Samples;Min_cycle;Max_cycle;Signal;HPM_P1;HPM_P2
2022/12/04 00:01:42;;;;;;;70.73;26.10;;;;;;;;;;4971311;28;20542;-83
2022/12/04 00:04:09;;;;;;;68.87;24.63;;;;;;;;;;4972203;28;20029;-81
2022/12/04 00:06:34;;;;;;;65.13;23.67;;;;;;;;;;4970994;28;20034;-82
2022/12/04 00:09:00;;;;;;;63.60;23.37;;;;;;;;;;4972167;28;20026;-81
2022/12/04 00:11:29;;;;;;;71.70;25.27;;;;;;;;;;4969811;28;20054;-81
2022/12/04 00:13:55;;;;;;;62.77;22.87;;;;;;;;;;4970598;28;20042;-82
2022/12/04 00:16:23;;;;;;;68.43;24.27;;;;;;;;;;4970000;28;20081;-82
2022/12/04 00:18:49;;;;;;;65.23;23.53;;;;;;;;;;4971595;28;20046;-82
2022/12/04 00:21:16;;;;;;;65.00;25.80;;;;;;;;;;4970355;28;20030;-82
2022/12/04 00:23:42;;;;;;;67.80;25.00;;;;;;;;;;4971745;28;20455;-83
2022/12/04 00:26:14;;;;;;;64.33;25.03;;;;;;;;;;4970426;28;20027;-81
2022/12/04 00:28:40;;;;;;;71.97;25.73;;;;;;;;;;4970473;28;20030;-82
2022/12/04 00:31:08;;;;;;;67.57;23.53;;;;;;;;;;4971851;28;20038;-82
2022/12/04 00:33:35;;;;;;;63.50;22.97;;;;;;;;;;4970747;28;20031;-82
2022/12/04 00:36:04;;;;;;;63.83;24.73;;;;;;;;;;4970489;28;20030;-81
2022/12/04 00:38:30;;;;;;;62.93;25.00;;;;;;;;;;4970312;28;20458;-81
2022/12/04 00:40:55;;;;;;;67.47;26.67;;;;;;;;;;4969925;28;20114;-80
2022/12/04 00:43:22;;;;;;;66.27;24.40;;;;;;;;;;4971142;28;20089;-81
2022/12/04 00:45:47;;;;;;;65.37;24.97;;;;;;;;;;4969996;28;20206;-82
2022/12/04 00:48:13;;;;;;;72.67;26.57;;;;;;;;;;4970317;28;20164;-79
2022/12/04 00:50:38;;;;;;;69.93;24.73;;;;;;;;;;4971749;28;20027;-81
2022/12/04 00:53:04;;;;;;;71.17;25.40;;;;;;;;;;4970345;28;20371;-81
2022/12/04 00:55:30;;;;;;;59.10;23.77;;;;;;;;;;4970169;28;20019;-82
2022/12/04 00:57:55;;;;;;;67.57;24.53;;;;;;;;;;4970447;28;20371;-82
2022/12/04 01:00:21;;;;;;;63.27;24.10;;;;;;;;;;4971659;28;20047;-82
2022/12/04 01:02:46;;;;;;;66.97;24.73;;;;;;;;;;4970687;28;20053;-82
2022/12/04 01:05:12;;;;;;;67.67;24.13;;;;;;;;;;4971796;28;20034;-83
2022/12/04 01:07:44;;;;;;;71.43;26.87;;;;;;;;;;4970514;28;20423;-81
2022/12/04 01:10:12;;;;;;;68.00;24.30;;;;;;;;;;4970869;28;20043;-81
2022/12/04 01:12:38;;;;;;;63.37;24.23;;;;;;;;;;4972828;28;20122;-81
2022/12/04 01:15:04;;;;;;;66.77;24.93;;;;;;;;;;4974409;28;20058;-81
2022/12/04 01:17:30;;;;;;;67.90;25.67;;;;;;;;;;4975682;28;20038;-81
2022/12/04 01:19:55;;;;;;;66.67;25.37;;;;;;;;;;4972292;28;20031;-81
2022/12/04 01:22:21;;;;;;;56.37;23.63;;;;;;;;;;4970656;28;20037;-82
2022/12/04 01:24:46;;;;;;;67.10;26.50;;;;;;;;;;4974064;28;20065;-80
2022/12/04 01:27:12;;;;;;;68.77;24.53;;;;;;;;;;4985985;28;20026;-78
2022/12/04 01:29:37;;;;;;;69.17;25.97;;;;;;;;;;4992727;28;20427;-79
2022/12/04 01:32:03;;;;;;;64.93;24.60;;;;;;;;;;4994035;28;20026;-80
2022/12/04 01:34:29;;;;;;;60.87;23.30;;;;;;;;;;4993799;28;20045;-80
2022/12/04 01:36:54;;;;;;;65.87;25.47;;;;;;;;;;4993541;28;20034;-80
2022/12/04 01:39:20;;;;;;;60.80;24.10;;;;;;;;;;4993533;28;20030;-80
2022/12/04 01:41:45;;;;;;;59.43;23.47;;;;;;;;;;4992500;28;20451;-80
2022/12/04 01:44:23;;;;;;;65.53;25.87;;;;;;;;;;4992375;28;20098;-80
2022/12/04 01:46:51;;;;;;;60.33;23.90;;;;;;;;;;4993852;28;20022;-80
2022/12/04 01:49:22;;;;;;;65.83;25.10;;;;;;;;;;4992433;28;20022;-79
2022/12/04 01:51:55;;;;;;;66.60;26.05;;;;;;;;;;4992629;28;20033;-81
2022/12/04 01:54:27;;;;;;;63.40;23.53;;;;;;;;;;4992389;28;20030;-80
2022/12/04 01:57:12;;;;;;;53.72;22.65;;;;;;;;;;4992200;28;20030;-79
2022/12/04 01:59:44;;;;;;;58.20;23.97;;;;;;;;;;4992529;28;20049;-81
2022/12/04 02:02:13;;;;;;;61.30;23.90;;;;;;;;;;4994101;28;20037;-81
2022/12/04 02:04:41;;;;;;;61.87;23.53;;;;;;;;;;4992646;28;20125;-81
2022/12/04 02:07:07;;;;;;;58.37;21.80;;;;;;;;;;4994121;28;20033;-80
2022/12/04 02:09:34;;;;;;;64.63;26.73;;;;;;;;;;4993286;28;20118;-79
2022/12/04 02:12:22;;;;;;;66.43;24.93;;;;;;;;;;4991981;28;20068;-78
2022/12/04 02:15:16;;;;;;;67.67;26.33;;;;;;;;;;5008101;28;20096;-79
2022/12/04 02:18:04;;;;;;;65.37;24.83;;;;;;;;;;4991948;28;20042;-79
2022/12/04 02:20:48;;;;;;;59.23;22.33;;;;;;;;;;5000988;28;20050;-80
2022/12/04 02:23:32;;;;;;;60.40;24.10;;;;;;;;;;5009033;28;20117;-79
2022/12/04 02:26:04;;;;;;;58.60;24.47;;;;;;;;;;4991282;28;20050;-80
2022/12/04 02:29:01;;;;;;;52.33;21.97;;;;;;;;;;4973229;28;20034;-80
2022/12/04 02:31:35;;;;;;;60.97;25.10;;;;;;;;;;4974228;28;20463;-79
2022/12/04 02:34:15;;;;;;;58.43;23.87;;;;;;;;;;4972743;28;20042;-79
2022/12/04 02:36:51;;;;;;;55.53;23.63;;;;;;;;;;4973022;28;20545;-79
2022/12/04 02:39:40;;;;;;;53.63;22.80;;;;;;;;;;4973188;28;20034;-80
2022/12/04 02:42:38;;;;;;;51.97;21.40;;;;;;;;;;4984857;28;20035;-78
2022/12/04 02:45:19;;;;;;;59.83;22.93;;;;;;;;;;4987682;28;20043;-79
2022/12/04 02:47:45;;;;;;;54.87;21.00;;;;;;;;;;4978590;28;20022;-78
2022/12/04 02:50:17;;;;;;;56.97;22.93;;;;;;;;;;4973681;28;20513;-78
2022/12/04 02:52:51;;;;;;;61.67;25.27;;;;;;;;;;4971539;28;20419;-78
2022/12/04 02:55:41;;;;;;;63.33;25.03;;;;;;;;;;4971390;28;20556;-79
2022/12/04 02:58:13;;;;;;;53.97;24.03;;;;;;;;;;4971467;28;20394;-79
2022/12/04 03:00:42;;;;;;;53.70;22.33;;;;;;;;;;4971081;28;20081;-79
2022/12/04 03:03:14;;;;;;;59.67;25.17;;;;;;;;;;4972233;28;20404;-79
2022/12/04 03:05:57;;;;;;;54.22;22.17;;;;;;;;;;4971168;28;20395;-79
2022/12/04 03:08:28;;;;;;;50.27;21.33;;;;;;;;;;4971103;28;20031;-79
2022/12/04 03:10:59;;;;;;;59.67;26.17;;;;;;;;;;4971282;28;20031;-80
2022/12/04 03:13:59;;;;;;;50.37;22.57;;;;;;;;;;4971338;28;20026;-79
2022/12/04 03:16:34;;;;;;;52.53;23.73;;;;;;;;;;4976744;28;20042;-79
2022/12/04 03:19:09;;;;;;;51.87;22.13;;;;;;;;;;4973922;28;20027;-80
2022/12/04 03:21:38;;;;;;;52.17;22.77;;;;;;;;;;4972767;28;20034;-80
2022/12/04 03:24:16;;;;;;;53.00;22.30;;;;;;;;;;4970780;28;20117;-79
2022/12/04 03:26:55;;;;;;;56.97;23.27;;;;;;;;;;4980288;28;20049;-79
2022/12/04 03:29:25;;;;;;;57.00;22.50;;;;;;;;;;4990082;28;20026;-79
2022/12/04 03:32:11;;;;;;;54.13;24.13;;;;;;;;;;4990546;28;20082;-79
2022/12/04 03:35:01;;;;;;;49.97;22.40;;;;;;;;;;4992034;28;20402;-79
2022/12/04 03:37:45;;;;;;;58.47;22.13;;;;;;;;;;5006772;28;20558;-79
2022/12/04 03:40:27;;;;;;;51.17;23.77;;;;;;;;;;4990349;28;20025;-79
2022/12/04 03:43:15;;;;;;;54.43;22.33;;;;;;;;;;4991737;28;20367;-80
2022/12/04 03:46:16;;;;;;;57.77;24.17;;;;;;;;;;4991142;28;20403;-79
2022/12/04 03:48:49;;;;;;;48.27;21.77;;;;;;;;;;4986334;28;20502;-80
2022/12/04 03:51:20;;;;;;;50.67;21.50;;;;;;;;;;4991833;28;20490;-80
2022/12/04 03:53:57;;;;;;;55.30;22.45;;;;;;;;;;4990538;28;20077;-79
2022/12/04 03:56:28;;;;;;;49.10;21.27;;;;;;;;;;4990459;28;20072;-79
2022/12/04 03:59:07;;;;;;;55.60;22.67;;;;;;;;;;4990213;28;20093;-78
2022/12/04 04:01:39;;;;;;;49.93;22.20;;;;;;;;;;4991490;28;20296;-81
2022/12/04 04:04:09;;;;;;;55.05;23.42;;;;;;;;;;4990926;28;20026;-80
2022/12/04 04:06:41;;;;;;;50.10;22.20;;;;;;;;;;4973910;28;20129;-79
2022/12/04 04:09:13;;;;;;;;;;;;;;;;;;4991235;28;20033;-79
2022/12/04 04:12:05;;;;;;;52.50;22.13;;;;;;;;;;4989160;28;19918;-79
2022/12/04 04:25:57;;;;;;;57.30;23.77;;;;;;;;;;4990871;28;20126;-78
2022/12/04 04:28:33;;;;;;;59.27;24.03;;;;;;;;;;4989017;28;20061;-78
2022/12/04 04:31:23;;;;;;;55.03;22.67;;;;;;;;;;4989194;28;20031;-78
2022/12/04 04:33:54;;;;;;;47.97;21.87;;;;;;;;;;4989018;28;20029;-78
2022/12/04 04:36:43;;;;;;;54.67;23.40;;;;;;;;;;4989239;28;20489;-79
2022/12/04 04:39:36;;;;;;;53.63;22.13;;;;;;;;;;4988870;28;20038;-78
2022/12/04 04:42:34;;;;;;;55.73;22.70;;;;;;;;;;4988818;28;20026;-79
2022/12/04 04:45:22;;;;;;;49.87;22.47;;;;;;;;;;4981004;28;20120;-78
2022/12/04 04:48:01;;;;;;;50.33;22.10;;;;;;;;;;4988941;28;20678;-77
2022/12/04 04:50:27;;;;;;;51.50;21.90;;;;;;;;;;4989028;28;20022;-78
2022/12/04 04:53:00;;;;;;;49.60;22.13;;;;;;;;;;4989119;28;20030;-79
2022/12/04 04:55:26;;;;;;;41.77;19.90;;;;;;;;;;4990574;28;20026;-78
2022/12/04 04:57:51;;;;;;;49.40;22.40;;;;;;;;;;4989623;28;20036;-79
2022/12/04 05:00:23;;;;;;;49.83;22.17;;;;;;;;;;4995197;28;20383;-78
2022/12/04 05:02:49;;;;;;;44.75;21.25;;;;;;;;;;4993471;28;20062;-78
2022/12/04 05:05:15;;;;;;;48.93;21.93;;;;;;;;;;4994474;28;20046;-80
2022/12/04 05:07:40;;;;;;;48.27;21.73;;;;;;;;;;4992875;28;20076;-79
2022/12/04 05:10:07;;;;;;;50.90;21.83;;;;;;;;;;4994113;28;20463;-78
2022/12/04 05:12:33;;;;;;;49.00;21.60;;;;;;;;;;4993913;28;20034;-79
2022/12/04 05:14:58;;;;;;;52.20;22.37;;;;;;;;;;4992634;28;20026;-78
2022/12/04 05:17:24;;;;;;;46.57;20.80;;;;;;;;;;4993912;28;20364;-78
2022/12/04 05:19:52;;;;;;;48.00;20.37;;;;;;;;;;4994460;28;20068;-79
2022/12/04 05:22:30;;;;;;;49.50;21.37;;;;;;;;;;4992766;28;20026;-79
2022/12/04 05:24:57;;;;;;;47.67;21.17;;;;;;;;;;4993535;28;20026;-79
2022/12/04 05:27:23;;;;;;;40.07;18.30;;;;;;;;;;4994096;28;20049;-78
2022/12/04 05:29:52;;;;;;;47.10;21.10;;;;;;;;;;4994953;28;20030;-79
2022/12/04 05:32:19;;;;;;;46.17;20.47;;;;;;;;;;4994507;28;20109;-81
2022/12/04 05:34:50;;;;;;;49.60;20.90;;;;;;;;;;4993370;28;20068;-78
2022/12/04 05:37:16;;;;;;;51.65;20.95;;;;;;;;;;4992446;28;20030;-79
2022/12/04 05:39:41;;;;;;;49.63;20.07;;;;;;;;;;4992324;28;20045;-78
2022/12/04 05:42:07;;;;;;;48.33;21.93;;;;;;;;;;5008737;28;20534;-79
2022/12/04 05:44:32;;;;;;;45.57;19.97;;;;;;;;;;4991895;28;20026;-79
2022/12/04 05:46:59;;;;;;;46.73;19.97;;;;;;;;;;4993467;28;20237;-79
2022/12/04 05:49:28;;;;;;;48.43;19.97;;;;;;;;;;4991878;28;20475;-79
2022/12/04 05:51:53;;;;;;;49.37;20.60;;;;;;;;;;4991739;28;20022;-78
2022/12/04 05:54:19;;;;;;;45.80;19.87;;;;;;;;;;4991919;28;20022;-78
2022/12/04 05:56:44;;;;;;;52.37;21.37;;;;;;;;;;4993296;28;20717;-78
2022/12/04 05:59:10;;;;;;;46.07;20.07;;;;;;;;;;4992896;28;20053;-79
2022/12/04 06:01:36;;;;;;;42.60;19.40;;;;;;;;;;4991626;28;20080;-78
2022/12/04 06:04:03;;;;;;;49.57;19.93;;;;;;;;;;4993664;28;20655;-78
2022/12/04 06:06:28;;;;;;;52.93;21.87;;;;;;;;;;4976423;28;20041;-78
2022/12/04 06:08:56;;;;;;;48.70;19.47;;;;;;;;;;4993115;28;20026;-78
2022/12/04 06:11:24;;;;;;;45.60;19.67;;;;;;;;;;4993113;28;20054;-78
2022/12/04 06:13:51;;;;;;;43.03;18.53;;;;;;;;;;4991746;28;20068;-78
2022/12/04 06:16:22;;;;;;;46.73;20.17;;;;;;;;;;4991950;28;20374;-78
2022/12/04 06:18:50;;;;;;;57.88;21.55;;;;;;;;;;4993473;28;20028;-79
2022/12/04 06:21:18;;;;;;;54.97;26.60;;;;;;;;;;4993086;28;20483;-80
2022/12/04 06:23:44;;;;;;;43.23;21.10;;;;;;;;;;4992441;28;20038;-79
2022/12/04 06:26:10;;;;;;;49.60;20.07;;;;;;;;;;4992371;28;20029;-79
2022/12/04 06:28:36;;;;;;;41.27;17.93;;;;;;;;;;4992275;28;20068;-79
2022/12/04 06:31:04;;;;;;;51.23;20.87;;;;;;;;;;4994348;28;20026;-79
2022/12/04 06:33:30;;;;;;;48.10;21.10;;;;;;;;;;4992506;28;20416;-78
2022/12/04 06:36:03;;;;;;;46.30;19.83;;;;;;;;;;4991129;28;20061;-79
2022/12/04 06:38:29;;;;;;;46.27;18.53;;;;;;;;;;4991125;28;20038;-79
2022/12/04 06:40:55;;;;;;;43.17;18.67;;;;;;;;;;4992145;28;20141;-79
2022/12/04 06:43:20;;;;;;;46.23;19.70;;;;;;;;;;4990738;28;20031;-78
2022/12/04 06:45:46;;;;;;;42.77;19.50;;;;;;;;;;4990845;28;20087;-77
2022/12/04 06:48:11;;;;;;;47.27;19.73;;;;;;;;;;4990980;28;20030;-79
2022/12/04 06:50:37;;;;;;;48.73;18.70;;;;;;;;;;4990956;28;20716;-78
2022/12/04 06:53:09;;;;;;;52.73;24.17;;;;;;;;;;4991435;28;20030;-80
2022/12/04 06:55:35;;;;;;;42.57;19.03;;;;;;;;;;4990345;28;20030;-78
2022/12/04 06:58:00;;;;;;;42.87;19.63;;;;;;;;;;4990782;28;20029;-79
2022/12/04 07:00:26;;;;;;;46.17;19.17;;;;;;;;;;4991893;28;20064;-78
2022/12/04 07:02:51;;;;;;;41.70;18.57;;;;;;;;;;5006999;28;20030;-78
2022/12/04 07:05:17;;;;;;;42.60;19.07;;;;;;;;;;4992024;28;20109;-79
2022/12/04 07:07:42;;;;;;;46.37;20.57;;;;;;;;;;4990882;28;20026;-80
2022/12/04 07:10:08;;;;;;;40.20;19.27;;;;;;;;;;4991140;28;20124;-78
2022/12/04 07:12:34;;;;;;;39.27;18.43;;;;;;;;;;5007715;28;20463;-77
2022/12/04 07:15:01;;;;;;;47.30;22.87;;;;;;;;;;4991566;28;20113;-77
2022/12/04 07:17:26;;;;;;;39.70;20.33;;;;;;;;;;4991171;28;20205;-79
2022/12/04 07:19:52;;;;;;;46.03;19.53;;;;;;;;;;4990973;28;20129;-77
2022/12/04 07:22:17;;;;;;;45.93;19.93;;;;;;;;;;4990225;28;20027;-79
2022/12/04 07:24:43;;;;;;;38.53;17.80;;;;;;;;;;4992163;28;20029;-78
2022/12/04 07:27:08;;;;;;;43.57;18.90;;;;;;;;;;4987586;28;20023;-78
2022/12/04 07:29:34;;;;;;;48.67;18.90;;;;;;;;;;4988236;28;20022;-78
2022/12/04 07:31:59;;;;;;;44.67;20.03;;;;;;;;;;4974223;28;20479;-79
2022/12/04 07:34:25;;;;;;;38.40;17.07;;;;;;;;;;4988559;28;20121;-78
2022/12/04 07:36:50;;;;;;;48.87;19.87;;;;;;;;;;4987665;28;20023;-79
2022/12/04 07:39:16;;;;;;;42.60;19.07;;;;;;;;;;4987649;28;20034;-79
2022/12/04 07:41:41;;;;;;;42.27;19.83;;;;;;;;;;4987306;28;20035;-78
2022/12/04 07:44:07;;;;;;;41.50;18.77;;;;;;;;;;4971220;28;20034;-78
2022/12/04 07:46:32;;;;;;;43.20;19.50;;;;;;;;;;4987247;28;20054;-78
2022/12/04 07:48:58;;;;;;;43.20;18.87;;;;;;;;;;4986542;28;20478;-78
2022/12/04 07:51:26;;;;;;;42.83;19.37;;;;;;;;;;4987465;28;20038;-79
2022/12/04 07:53:53;;;;;;;45.37;19.13;;;;;;;;;;4971551;28;20077;-79
2022/12/04 07:56:19;;;;;;;41.20;17.60;;;;;;;;;;4986354;28;20084;-79
2022/12/04 07:58:45;;;;;;;42.20;19.60;;;;;;;;;;4986147;28;20061;-79
2022/12/04 08:01:16;;;;;;;50.33;18.60;;;;;;;;;;4971511;28;20030;-79
2022/12/04 08:03:43;;;;;;;42.07;20.33;;;;;;;;;;4986013;28;20030;-79
2022/12/04 08:06:08;;;;;;;40.17;18.77;;;;;;;;;;4986481;28;20035;-79
2022/12/04 08:08:35;;;;;;;45.13;18.83;;;;;;;;;;4971507;28;20154;-79
2022/12/04 08:11:07;;;;;;;42.63;18.53;;;;;;;;;;4986168;28;20518;-80
2022/12/04 08:13:32;;;;;;;41.10;20.25;;;;;;;;;;4986452;28;20070;-79
2022/12/04 08:16:02;;;;;;;40.50;18.70;;;;;;;;;;4986152;28;20077;-79
2022/12/04 08:18:30;;;;;;;45.87;19.67;;;;;;;;;;4986523;28;20112;-79
2022/12/04 08:21:05;;;;;;;40.00;18.40;;;;;;;;;;4986245;28;20081;-80
2022/12/04 08:23:31;;;;;;;39.90;18.60;;;;;;;;;;4986310;28;20395;-79
2022/12/04 08:26:00;;;;;;;44.10;18.37;;;;;;;;;;4986312;28;20026;-79
2022/12/04 08:28:27;;;;;;;45.60;20.67;;;;;;;;;;4971618;28;20320;-79
2022/12/04 08:30:52;;;;;;;37.93;18.43;;;;;;;;;;4971493;28;20031;-79
2022/12/04 08:33:18;;;;;;;40.53;18.40;;;;;;;;;;4971817;28;20395;-79
2022/12/04 08:35:43;;;;;;;39.13;18.63;;;;;;;;;;4990496;28;20037;-78
2022/12/04 08:38:09;;;;;;;40.93;20.07;;;;;;;;;;4976007;28;20064;-79
2022/12/04 08:40:34;;;;;;;43.90;20.20;;;;;;;;;;4975311;28;20109;-79
2022/12/04 08:43:00;;;;;;;45.87;21.87;;;;;;;;;;4976397;28;20038;-79
2022/12/04 08:45:25;;;;;;;39.90;19.37;;;;;;;;;;4975893;28;20023;-79
2022/12/04 08:47:51;;;;;;;44.07;19.17;;;;;;;;;;4973851;28;20047;-79
2022/12/04 08:50:16;;;;;;;46.60;21.17;;;;;;;;;;4973982;28;20467;-79
2022/12/04 08:52:42;;;;;;;42.23;19.60;;;;;;;;;;4975311;28;20019;-80
2022/12/04 08:55:08;;;;;;;44.73;19.07;;;;;;;;;;4973668;28;20117;-79
2022/12/04 08:57:33;;;;;;;50.57;21.40;;;;;;;;;;4974319;28;20464;-80
2022/12/04 08:59:59;;;;;;;41.37;19.67;;;;;;;;;;4975041;28;20042;-80
2022/12/04 09:02:24;;;;;;;40.33;18.70;;;;;;;;;;4974138;28;20522;-79
2022/12/04 09:04:50;;;;;;;41.17;19.73;;;;;;;;;;4974663;28;20372;-79
2022/12/04 09:07:15;;;;;;;48.97;21.47;;;;;;;;;;4973582;28;20029;-79
2022/12/04 09:09:41;;;;;;;44.37;21.37;;;;;;;;;;4974872;28;20030;-80
2022/12/04 09:12:06;;;;;;;50.30;21.80;;;;;;;;;;4973252;28;20121;-78
2022/12/04 09:14:32;;;;;;;46.30;21.83;;;;;;;;;;4973507;28;20031;-78
2022/12/04 09:16:57;;;;;;;48.27;22.10;;;;;;;;;;4972995;28;20065;-80
2022/12/04 09:19:23;;;;;;;47.60;20.17;;;;;;;;;;4973175;28;20134;-79
2022/12/04 09:21:48;;;;;;;52.57;22.63;;;;;;;;;;4973447;28;20483;-79
2022/12/04 09:24:14;;;;;;;44.63;20.73;;;;;;;;;;4973341;28;20530;-80
2022/12/04 09:26:40;;;;;;;47.97;22.70;;;;;;;;;;4973490;28;20034;-79
2022/12/04 09:29:06;;;;;;;51.33;23.33;;;;;;;;;;4974684;28;20475;-79
2022/12/04 09:31:33;;;;;;;51.40;21.17;;;;;;;;;;4973277;28;20027;-79
2022/12/04 09:34:00;;;;;;;50.20;22.70;;;;;;;;;;4973475;28;20166;-78
2022/12/04 09:36:26;;;;;;;48.03;23.37;;;;;;;;;;4974024;28;20027;-80
2022/12/04 09:38:53;;;;;;;45.80;21.97;;;;;;;;;;4957341;28;20039;-80
2022/12/04 09:41:24;;;;;;;58.97;22.60;;;;;;;;;;4973223;28;20050;-80
2022/12/04 09:44:22;;;;;;;47.35;21.10;;;;;;;;;;4973509;28;20027;-79
2022/12/04 09:46:58;;;;;;;47.37;22.37;;;;;;;;;;4971405;28;20062;-81
2022/12/04 09:49:47;;;;;;;47.87;22.13;;;;;;;;;;4972777;28;20667;-80
2022/12/04 09:52:29;;;;;;;43.83;20.53;;;;;;;;;;4974119;28;20077;-80
2022/12/04 09:54:58;;;;;;;46.80;21.27;;;;;;;;;;4972441;28;20026;-80
2022/12/04 09:57:42;;;;;;;54.83;23.27;;;;;;;;;;4972244;28;20047;-79
2022/12/04 10:00:14;;;;;;;42.30;21.70;;;;;;;;;;4972260;28;20039;-79
2022/12/04 10:02:43;;;;;;;41.50;20.95;;;;;;;;;;4972874;28;20036;-80
2022/12/04 10:05:37;;;;;;;48.07;22.07;;;;;;;;;;4973872;28;20435;-81
2022/12/04 10:08:28;;;;;;;47.73;21.50;;;;;;;;;;4942358;28;20034;-79
2022/12/04 10:11:12;;;;;;;47.88;22.55;;;;;;;;;;4972316;28;20031;-80
2022/12/04 10:13:58;;;;;;;45.03;20.93;;;;;;;;;;4972896;28;20027;-79
2022/12/04 10:16:35;;;;;;;44.67;20.57;;;;;;;;;;4972622;28;20475;-79
2022/12/04 10:19:26;;;;;;;44.72;20.90;;;;;;;;;;4972366;28;20104;-79
2022/12/04 10:22:40;;;;;;;48.35;21.77;;;;;;;;;;4972447;28;20106;-80
2022/12/04 10:25:18;;;;;;;49.83;22.55;;;;;;;;;;4943366;28;20082;-79
2022/12/04 10:28:23;;;;;;;46.87;20.63;;;;;;;;;;4973678;28;20027;-80
2022/12/04 10:30:51;;;;;;;43.60;21.48;;;;;;;;;;4974507;28;20101;-79
2022/12/04 10:33:29;;;;;;;46.93;21.57;;;;;;;;;;4974536;28;20698;-78
2022/12/04 10:35:54;;;;;;;50.90;22.80;;;;;;;;;;4974320;28;20027;-80
2022/12/04 10:38:52;;;;;;;39.25;20.75;;;;;;;;;;4972696;28;20027;-79
2022/12/04 10:41:44;;;;;;;47.90;22.98;;;;;;;;;;4939674;28;20062;-78
2022/12/04 10:44:15;;;;;;;44.22;21.60;;;;;;;;;;4971553;28;20066;-79
2022/12/04 10:46:41;;;;;;;51.85;22.73;;;;;;;;;;4971831;28;20030;-79
2022/12/04 10:49:33;;;;;;;51.75;23.23;;;;;;;;;;4971374;28;20026;-77
2022/12/04 10:52:00;;;;;;;46.40;21.58;;;;;;;;;;4972727;28;20093;-80
2022/12/04 10:54:39;;;;;;;44.90;21.20;;;;;;;;;;4987772;28;20037;-79
2022/12/04 10:57:07;;;;;;;44.22;21.02;;;;;;;;;;4954622;28;20134;-79
2022/12/04 10:59:34;;;;;;;48.90;23.65;;;;;;;;;;4971517;28;20114;-79
2022/12/04 11:02:01;;;;;;;45.72;21.60;;;;;;;;;;4971382;28;20023;-79
2022/12/04 11:04:30;;;;;;;42.67;20.83;;;;;;;;;;4971576;28;20077;-78
2022/12/04 11:07:21;;;;;;;45.33;21.52;;;;;;;;;;4971147;28;20085;-79
2022/12/04 11:10:03;;;;;;;46.95;22.88;;;;;;;;;;4968824;28;20043;-78
2022/12/04 11:12:29;;;;;;;47.40;21.85;;;;;;;;;;4971742;28;20026;-77
2022/12/04 11:15:14;;;;;;;43.40;21.40;;;;;;;;;;4971305;28;20029;-81
2022/12/04 11:17:40;;;;;;;42.17;20.33;;;;;;;;;;4973110;28;20031;-78
2022/12/04 11:20:12;;;;;;;46.17;22.60;;;;;;;;;;4971335;28;20104;-79
2022/12/04 11:22:49;;;;;;;44.78;20.52;;;;;;;;;;4971263;28;20038;-79
2022/12/04 11:25:18;;;;;;;42.80;20.48;;;;;;;;;;4971998;28;20058;-80
2022/12/04 11:27:50;;;;;;;47.63;21.15;;;;;;;;;;4973132;28;20510;-82
2022/12/04 11:30:20;;;;;;;;;;;;;;;;;;4972071;28;20047;-79
2022/12/04 11:32:46;;;;;;;40.50;20.85;;;;;;;;;;4972668;28;19917;-80
2022/12/04 11:35:17;;;;;;;41.35;21.88;;;;;;;;;;4973365;28;20116;-80
2022/12/04 11:37:53;;;;;;;43.60;21.85;;;;;;;;;;4988328;28;20030;-81
2022/12/04 11:40:19;;;;;;;45.47;21.52;;;;;;;;;;4971360;28;20038;-81
2022/12/04 11:43:00;;;;;;;39.88;20.70;;;;;;;;;;4971404;28;20057;-81
2022/12/04 11:45:26;;;;;;;40.40;19.95;;;;;;;;;;4955788;28;20121;-80
2022/12/04 11:47:57;;;;;;;42.95;19.80;;;;;;;;;;4970838;28;20435;-80
2022/12/04 11:50:43;;;;;;;40.72;20.58;;;;;;;;;;4971072;28;20029;-83
2022/12/04 11:53:13;;;;;;;45.10;21.30;;;;;;;;;;4972149;28;20023;-81
2022/12/04 11:56:04;;;;;;;45.42;21.33;;;;;;;;;;4971749;28;20034;-81
2022/12/04 11:58:51;;;;;;;45.20;20.48;;;;;;;;;;4973254;28;20142;-81
2022/12/04 12:01:23;;;;;;;45.50;19.83;;;;;;;;;;4972085;28;20302;-80
2022/12/04 12:04:06;;;;;;;40.95;19.65;;;;;;;;;;4972380;28;20058;-82
2022/12/04 12:06:34;;;;;;;;;;;;;;;;;;4971239;28;20034;-82
2022/12/04 12:09:42;;;;;;;43.85;19.17;;;;;;;;;;4972637;28;19996;-81
2022/12/04 12:12:21;;;;;;;43.25;20.58;;;;;;;;;;4954863;28;20038;-80
2022/12/04 12:14:59;;;;;;;43.50;21.67;;;;;;;;;;4971616;28;20031;-80
2022/12/04 12:17:37;;;;;;;43.45;20.35;;;;;;;;;;4973107;28;20039;-81
2022/12/04 12:20:13;;;;;;;39.28;20.88;;;;;;;;;;4973140;28;20041;-81
2022/12/04 12:22:51;;;;;;;42.08;20.05;;;;;;;;;;4972647;28;20488;-79
2022/12/04 12:25:22;;;;;;;38.70;20.35;;;;;;;;;;4973177;28;20031;-81
2022/12/04 12:28:17;;;;;;;47.65;22.63;;;;;;;;;;4971804;28;20031;-79
2022/12/04 12:30:48;;;;;;;45.55;20.58;;;;;;;;;;4958391;28;20073;-79
2022/12/04 12:33:25;;;;;;;44.92;20.10;;;;;;;;;;4970768;28;20506;-81
2022/12/04 12:36:04;;;;;;;41.33;20.88;;;;;;;;;;4971413;28;20057;-79
2022/12/04 12:38:57;;;;;;;44.25;21.05;;;;;;;;;;4970204;28;20030;-80
2022/12/04 12:41:25;;;;;;;44.67;21.35;;;;;;;;;;4970525;28;20027;-79
2022/12/04 12:44:03;;;;;;;43.90;20.98;;;;;;;;;;4972165;28;20043;-78
2022/12/04 12:46:53;;;;;;;50.65;20.88;;;;;;;;;;4971344;28;20046;-81
2022/12/04 12:49:24;;;;;;;44.92;22.55;;;;;;;;;;4969912;28;20030;-80
2022/12/04 12:51:55;;;;;;;46.00;22.35;;;;;;;;;;4971295;28;20121;-79
2022/12/04 12:54:30;;;;;;;48.05;22.48;;;;;;;;;;4970351;28;20483;-79
2022/12/04 12:57:21;;;;;;;48.08;23.45;;;;;;;;;;4969444;28;20033;-79
2022/12/04 12:59:52;;;;;;;51.67;23.95;;;;;;;;;;4959202;28;20115;-78
2022/12/04 13:02:50;;;;;;;48.80;23.33;;;;;;;;;;4971262;28;20102;-78
2022/12/04 13:05:23;;;;;;;44.58;21.65;;;;;;;;;;4935736;28;20047;-79
2022/12/04 13:08:21;;;;;;;45.33;21.48;;;;;;;;;;4971386;28;20039;-79
2022/12/04 13:11:11;;;;;;;49.00;23.55;;;;;;;;;;4969927;28;20034;-80
2022/12/04 13:13:54;;;;;;;44.53;22.38;;;;;;;;;;4971318;28;20062;-81
2022/12/04 13:16:24;;;;;;;44.53;21.15;;;;;;;;;;4987311;28;20045;-78
2022/12/04 13:18:54;;;;;;;48.88;23.85;;;;;;;;;;4973866;28;20700;-79
2022/12/04 13:21:32;;;;;;;46.38;22.83;;;;;;;;;;4973301;28;20027;-80
2022/12/04 13:24:22;;;;;;;45.70;22.20;;;;;;;;;;4974794;28;20038;-82
2022/12/04 13:27:29;;;;;;;44.40;20.85;;;;;;;;;;4982398;28;20029;-81
2022/12/04 13:30:16;;;;;;;68.03;28.58;;;;;;;;;;4993037;28;20034;-82
2022/12/04 13:32:48;;;;;;;48.15;23.80;;;;;;;;;;4993280;28;20030;-81
2022/12/04 13:35:45;;;;;;;46.40;21.70;;;;;;;;;;4994100;28;20390;-82
2022/12/04 13:38:32;;;;;;;45.10;22.50;;;;;;;;;;4992665;28;20037;-80
2022/12/04 13:41:05;;;;;;;43.42;20.27;;;;;;;;;;4993925;28;20018;-85
2022/12/04 13:43:50;;;;;;;44.42;22.10;;;;;;;;;;4992716;28;20030;-79
2022/12/04 13:46:28;;;;;;;41.08;21.30;;;;;;;;;;4993284;28;20493;-79
2022/12/04 13:48:54;;;;;;;37.10;19.85;;;;;;;;;;4993426;28;20053;-79
2022/12/04 13:51:35;;;;;;;35.80;19.30;;;;;;;;;;4994439;28;20034;-79
2022/12/04 13:54:19;;;;;;;44.03;20.52;;;;;;;;;;4995456;28;20033;-79
2022/12/04 13:56:50;;;;;;;42.05;20.02;;;;;;;;;;4995026;28;20040;-79
2022/12/04 13:59:27;;;;;;;45.97;20.48;;;;;;;;;;4993344;28;20026;-82
2022/12/04 14:01:59;;;;;;;39.58;20.48;;;;;;;;;;4993567;28;20165;-80
2022/12/04 14:04:27;;;;;;;41.60;19.90;;;;;;;;;;4991674;28;20068;-79
2022/12/04 14:06:55;;;;;;;38.05;20.13;;;;;;;;;;4993510;28;20070;-79
2022/12/04 14:09:47;;;;;;;43.55;20.38;;;;;;;;;;4991622;28;20030;-80
2022/12/04 14:12:14;;;;;;;40.03;20.02;;;;;;;;;;4992036;28;20141;-81
2022/12/04 14:14:51;;;;;;;40.72;20.67;;;;;;;;;;4992231;28;20037;-79
2022/12/04 14:17:24;;;;;;;42.63;19.43;;;;;;;;;;4993519;28;20085;-82
2022/12/04 14:19:54;;;;;;;38.50;21.23;;;;;;;;;;4992270;28;20038;-79
2022/12/04 14:22:41;;;;;;;42.33;20.63;;;;;;;;;;4993019;28;20030;-79
2022/12/04 14:25:33;;;;;;;41.53;20.63;;;;;;;;;;4976167;28;20042;-80
2022/12/04 14:28:10;;;;;;;43.78;21.10;;;;;;;;;;4992774;28;20034;-79
2022/12/04 14:30:38;;;;;;;37.97;19.10;;;;;;;;;;4990095;28;20402;-78
2022/12/04 14:33:24;;;;;;;40.17;19.92;;;;;;;;;;4991212;28;20028;-79
2022/12/04 14:36:16;;;;;;;42.83;20.53;;;;;;;;;;4991349;28;20030;-80
2022/12/04 14:38:46;;;;;;;38.75;20.75;;;;;;;;;;4991523;28;20038;-78
2022/12/04 14:41:12;;;;;;;39.35;19.55;;;;;;;;;;4991388;28;20501;-79
2022/12/04 14:43:40;;;;;;;44.72;20.52;;;;;;;;;;4991108;28;20026;-78
2022/12/04 14:46:14;;;;;;;40.17;19.75;;;;;;;;;;4992478;28;20034;-81
2022/12/04 14:48:58;;;;;;;42.85;20.75;;;;;;;;;;4993144;28;20416;-80
2022/12/04 14:51:32;;;;;;;42.23;19.93;;;;;;;;;;4991294;28;20375;-83
2022/12/04 14:54:25;;;;;;;40.90;19.92;;;;;;;;;;4991236;28;20076;-82
2022/12/04 14:57:05;;;;;;;40.95;18.73;;;;;;;;;;4991047;28;20029;-81
2022/12/04 14:59:40;;;;;;;35.53;18.42;;;;;;;;;;4991142;28;20041;-81
2022/12/04 15:02:12;;;;;;;39.42;19.80;;;;;;;;;;4991016;28;20108;-80
2022/12/04 15:04:44;;;;;;;39.42;19.20;;;;;;;;;;5007236;28;20027;-83